sensor_id;sensor_type;location;lat;lon;timestamp;pressure;altitude;pressure_sealevel;temperature;humidity
70027;BME280;57506;50.092;15.804;2023-06-26T00:00:29;99204.81;;;15.06;100.00
70027;BME280;57506;50.092;15.804;2023-06-26T00:02:54;99186.81;;;15.12;100.00
70027;BME280;57506;50.092;15.804;2023-06-26T00:05:20;99183.97;;;15.43;100.00
70027;BME280;57506;50.092;15.804;2023-06-26T00:07:46;99189.56;;;15.48;100.00
70027;BME280;57506;50.092;15.804;2023-06-26T00:10:11;99189.94;;;15.33;100.00
70027;BME280;57506;50.092;15.804;2023-06-26T00:12:37;99193.41;;;15.22;100.00
70027;BME280;57506;50.092;15.804;2023-06-26T00:15:03;99201.09;;;15.00;100.00
70027;BME280;57506;50.092;15.804;2023-06-26T00:17:28;99199.13;;;14.89;100.00
70027;BME280;57506;50.092;15.804;2023-06-26T00:19:54;99191.47;;;14.80;100.00
70027;BME280;57506;50.092;15.804;2023-06-26T00:22:21;99198.88;;;14.66;100.00
70027;BME280;57506;50.092;15.804;2023-06-26T00:24:47;99192.63;;;14.65;100.00
70027;BME280;57506;50.092;15.804;2023-06-26T00:27:12;99205.19;;;14.60;100.00
70027;BME280;57506;50.092;15.804;2023-06-26T00:29:38;99191.88;;;14.52;100.00
70027;BME280;57506;50.092;15.804;2023-06-26T00:32:04;99203.38;;;14.47;100.00
70027;BME280;57506;50.092;15.804;2023-06-26T00:34:30;99206.16;;;14.41;100.00
70027;BME280;57506;50.092;15.804;2023-06-26T00:36:55;99197.41;;;14.32;100.00
70027;BME280;57506;50.092;15.804;2023-06-26T00:39:21;99189.13;;;14.27;100.00
70027;BME280;57506;50.092;15.804;2023-06-26T00:41:51;99192.47;;;14.22;100.00
70027;BME280;57506;50.092;15.804;2023-06-26T00:44:19;99190.81;;;14.21;100.00
70027;BME280;57506;50.092;15.804;2023-06-26T00:46:45;99185.16;;;14.23;100.00
70027;BME280;57506;50.092;15.804;2023-06-26T00:49:11;99183.91;;;14.25;100.00
70027;BME280;57506;50.092;15.804;2023-06-26T00:51:38;99181.13;;;14.32;100.00
70027;BME280;57506;50.092;15.804;2023-06-26T00:54:03;99177.44;;;14.26;100.00
70027;BME280;57506;50.092;15.804;2023-06-26T00:56:31;99179.78;;;14.16;100.00
70027;BME280;57506;50.092;15.804;2023-06-26T00:58:57;99187.06;;;14.16;100.00
70027;BME280;57506;50.092;15.804;2023-06-26T01:01:23;99179.56;;;14.18;100.00
70027;BME280;57506;50.092;15.804;2023-06-26T01:03:51;99181.22;;;14.19;100.00
70027;BME280;57506;50.092;15.804;2023-06-26T01:06:20;99175.59;;;14.20;100.00
70027;BME280;57506;50.092;15.804;2023-06-26T01:08:47;99167.47;;;14.20;100.00
70027;BME280;57506;50.092;15.804;2023-06-26T01:11:14;99175.59;;;14.20;100.00
70027;BME280;57506;50.092;15.804;2023-06-26T01:13:41;99176.44;;;14.14;100.00
70027;BME280;57506;50.092;15.804;2023-06-26T01:16:08;99167.84;;;14.24;100.00
70027;BME280;57506;50.092;15.804;2023-06-26T01:18:35;99165.66;;;14.46;100.00
70027;BME280;57506;50.092;15.804;2023-06-26T01:21:03;99158.91;;;14.55;100.00
70027;BME280;57506;50.092;15.804;2023-06-26T01:26:52;99174.72;;;14.26;100.00
70027;BME280;57506;50.092;15.804;2023-06-26T01:29:19;99179.63;;;14.11;100.00
70027;BME280;57506;50.092;15.804;2023-06-26T01:31:47;99180.69;;;13.97;100.00
70027;BME280;57506;50.092;15.804;2023-06-26T01:34:16;99170.16;;;13.82;100.00
70027;BME280;57506;50.092;15.804;2023-06-26T01:36:44;99170.41;;;13.74;100.00
70027;BME280;57506;50.092;15.804;2023-06-26T01:39:10;99169.81;;;13.65;100.00
70027;BME280;57506;50.092;15.804;2023-06-26T01:41:36;99184.84;;;13.61;100.00
70027;BME280;57506;50.092;15.804;2023-06-26T01:44:26;99172.75;;;13.57;100.00
70027;BME280;57506;50.092;15.804;2023-06-26T01:47:03;99172.13;;;13.55;100.00
70027;BME280;57506;50.092;15.804;2023-06-26T01:49:39;99173.81;;;13.50;100.00
70027;BME280;57506;50.092;15.804;2023-06-26T01:55:03;99167.78;;;13.48;100.00
70027;BME280;57506;50.092;15.804;2023-06-26T01:57:30;99159.47;;;13.43;100.00
70027;BME280;57506;50.092;15.804;2023-06-26T01:59:56;99161.56;;;13.41;100.00
70027;BME280;57506;50.092;15.804;2023-06-26T02:02:24;99161.56;;;13.41;100.00
70027;BME280;57506;50.092;15.804;2023-06-26T02:04:51;99160.28;;;13.50;100.00
70027;BME280;57506;50.092;15.804;2023-06-26T02:07:17;99144.38;;;13.66;100.00
70027;BME280;57506;50.092;15.804;2023-06-26T02:09:42;99147.00;;;13.86;100.00
70027;BME280;57506;50.092;15.804;2023-06-26T02:12:09;99153.19;;;14.00;100.00
70027;BME280;57506;50.092;15.804;2023-06-26T02:14:34;99157.41;;;13.96;100.00
70027;BME280;57506;50.092;15.804;2023-06-26T02:17:00;99152.09;;;13.70;100.00
70027;BME280;57506;50.092;15.804;2023-06-26T02:19:26;99153.59;;;13.59;100.00
70027;BME280;57506;50.092;15.804;2023-06-26T02:21:53;99161.97;;;13.44;100.00
70027;BME280;57506;50.092;15.804;2023-06-26T02:24:19;99160.13;;;13.38;100.00
70027;BME280;57506;50.092;15.804;2023-06-26T02:26:44;99165.78;;;13.30;100.00
70027;BME280;57506;50.092;15.804;2023-06-26T02:29:11;99164.72;;;13.24;100.00
70027;BME280;57506;50.092;15.804;2023-06-26T02:31:37;99163.28;;;13.22;100.00
70027;BME280;57506;50.092;15.804;2023-06-26T02:34:03;99158.69;;;13.09;100.00
70027;BME280;57506;50.092;15.804;2023-06-26T02:36:29;99160.78;;;13.01;100.00
70027;BME280;57506;50.092;15.804;2023-06-26T02:38:54;99161.63;;;12.94;100.00
70027;BME280;57506;50.092;15.804;2023-06-26T02:41:20;99163.72;;;12.92;100.00
70027;BME280;57506;50.092;15.804;2023-06-26T02:43:46;99158.28;;;12.86;100.00
70027;BME280;57506;50.092;15.804;2023-06-26T02:46:12;99157.88;;;12.95;100.00
70027;BME280;57506;50.092;15.804;2023-06-26T02:48:37;99159.94;;;13.00;100.00
70027;BME280;57506;50.092;15.804;2023-06-26T02:51:03;99147.66;;;13.24;100.00
70027;BME280;57506;50.092;15.804;2023-06-26T02:53:28;99140.78;;;13.28;100.00
70027;BME280;57506;50.092;15.804;2023-06-26T02:55:54;99147.25;;;13.20;100.00
70027;BME280;57506;50.092;15.804;2023-06-26T02:58:20;99154.75;;;13.12;100.00
70027;BME280;57506;50.092;15.804;2023-06-26T03:00:46;99152.25;;;13.04;100.00
70027;BME280;57506;50.092;15.804;2023-06-26T03:03:12;99154.13;;;13.10;100.00
70027;BME280;57506;50.092;15.804;2023-06-26T03:05:38;99140.59;;;13.16;100.00
70027;BME280;57506;50.092;15.804;2023-06-26T03:08:04;99154.13;;;13.16;100.00
70027;BME280;57506;50.092;15.804;2023-06-26T03:10:30;99159.31;;;13.11;100.00
70027;BME280;57506;50.092;15.804;2023-06-26T03:12:56;99157.25;;;13.20;100.00
70027;BME280;57506;50.092;15.804;2023-06-26T03:15:21;99150.78;;;13.27;100.00
70027;BME280;57506;50.092;15.804;2023-06-26T03:17:47;99153.06;;;13.24;100.00
70027;BME280;57506;50.092;15.804;2023-06-26T03:20:16;99163.28;;;13.22;100.00
70027;BME280;57506;50.092;15.804;2023-06-26T03:22:41;99159.94;;;13.20;100.00
70027;BME280;57506;50.092;15.804;2023-06-26T03:25:07;99151.00;;;13.13;100.00
70027;BME280;57506;50.092;15.804;2023-06-26T03:27:33;99151.81;;;13.20;100.00
70027;BME280;57506;50.092;15.804;2023-06-26T03:29:59;99139.97;;;13.21;100.00
70027;BME280;57506;50.092;15.804;2023-06-26T03:32:25;99147.88;;;13.29;100.00
70027;BME280;57506;50.092;15.804;2023-06-26T03:34:51;99144.13;;;13.30;100.00
70027;BME280;57506;50.092;15.804;2023-06-26T03:37:18;99148.66;;;13.36;100.00
70027;BME280;57506;50.092;15.804;2023-06-26T03:39:44;99144.22;;;13.61;100.00
70027;BME280;57506;50.092;15.804;2023-06-26T03:42:09;99141.84;;;13.78;100.00
70027;BME280;57506;50.092;15.804;2023-06-26T03:44:35;99141.69;;;14.11;100.00
70027;BME280;57506;50.092;15.804;2023-06-26T03:47:00;99138.19;;;14.29;100.00
70027;BME280;57506;50.092;15.804;2023-06-26T03:49:26;99137.03;;;14.50;100.00
70027;BME280;57506;50.092;15.804;2023-06-26T03:51:51;99144.59;;;14.73;100.00
70027;BME280;57506;50.092;15.804;2023-06-26T03:54:17;99148.44;;;14.83;100.00
70027;BME280;57506;50.092;15.804;2023-06-26T03:56:43;99155.19;;;14.99;100.00
70027;BME280;57506;50.092;15.804;2023-06-26T03:59:09;99144.69;;;15.09;100.00
70027;BME280;57506;50.092;15.804;2023-06-26T04:01:36;99157.66;;;15.25;100.00
70027;BME280;57506;50.092;15.804;2023-06-26T04:04:01;99154.47;;;15.28;100.00
70027;BME280;57506;50.092;15.804;2023-06-26T04:06:28;99151.38;;;15.43;100.00
70027;BME280;57506;50.092;15.804;2023-06-26T04:08:53;99155.47;;;15.52;100.00
70027;BME280;57506;50.092;15.804;2023-06-26T04:11:19;99150.38;;;15.62;100.00
70027;BME280;57506;50.092;15.804;2023-06-26T04:13:44;99157.78;;;15.73;100.00
70027;BME280;57506;50.092;15.804;2023-06-26T04:16:10;99145.44;;;15.89;100.00
70027;BME280;57506;50.092;15.804;2023-06-26T04:18:37;99156.41;;;16.13;100.00
70027;BME280;57506;50.092;15.804;2023-06-26T04:21:09;99171.53;;;16.38;100.00
70027;BME280;57506;50.092;15.804;2023-06-26T04:23:37;99162.56;;;16.50;100.00
70027;BME280;57506;50.092;15.804;2023-06-26T04:26:04;99163.22;;;16.75;100.00
70027;BME280;57506;50.092;15.804;2023-06-26T04:28:31;99169.31;;;17.00;100.00
70027;BME280;57506;50.092;15.804;2023-06-26T04:30:58;99166.22;;;17.08;100.00
70027;BME280;57506;50.092;15.804;2023-06-26T04:33:24;99168.22;;;17.13;100.00
70027;BME280;57506;50.092;15.804;2023-06-26T04:35:51;99174.50;;;17.37;100.00
70027;BME280;57506;50.092;15.804;2023-06-26T04:38:19;99169.75;;;17.67;100.00
70027;BME280;57506;50.092;15.804;2023-06-26T04:40:45;99177.50;;;17.87;100.00
70027;BME280;57506;50.092;15.804;2023-06-26T04:43:10;99174.75;;;17.99;100.00
70027;BME280;57506;50.092;15.804;2023-06-26T04:45:36;99173.59;;;18.23;100.00
70027;BME280;57506;50.092;15.804;2023-06-26T04:48:03;99163.44;;;18.35;100.00
70027;BME280;57506;50.092;15.804;2023-06-26T04:50:29;99171.41;;;18.65;100.00
70027;BME280;57506;50.092;15.804;2023-06-26T04:52:55;99175.81;;;18.83;100.00
70027;BME280;57506;50.092;15.804;2023-06-26T04:55:24;99173.47;;;19.08;100.00
70027;BME280;57506;50.092;15.804;2023-06-26T04:57:50;99176.47;;;19.62;100.00
70027;BME280;57506;50.092;15.804;2023-06-26T05:00:15;99175.72;;;19.88;99.64
70027;BME280;57506;50.092;15.804;2023-06-26T05:02:41;99178.88;;;20.24;98.84
70027;BME280;57506;50.092;15.804;2023-06-26T05:05:09;99171.69;;;20.40;97.97
70027;BME280;57506;50.092;15.804;2023-06-26T05:07:36;99181.88;;;20.22;99.33
70027;BME280;57506;50.092;15.804;2023-06-26T05:10:02;99177.50;;;20.48;96.00
70027;BME280;57506;50.092;15.804;2023-06-26T05:12:27;99174.41;;;20.99;94.36
70027;BME280;57506;50.092;15.804;2023-06-26T05:14:53;99180.53;;;20.79;92.74
70027;BME280;57506;50.092;15.804;2023-06-26T05:17:19;99171.34;;;20.63;96.52
70027;BME280;57506;50.092;15.804;2023-06-26T05:19:44;99166.03;;;20.51;94.58
70027;BME280;57506;50.092;15.804;2023-06-26T05:22:10;99173.59;;;20.39;94.32
70027;BME280;57506;50.092;15.804;2023-06-26T05:24:38;99178.59;;;20.47;96.39
70027;BME280;57506;50.092;15.804;2023-06-26T05:27:04;99177.97;;;20.99;91.34
70027;BME280;57506;50.092;15.804;2023-06-26T05:29:31;99176.97;;;20.78;91.67
70027;BME280;57506;50.092;15.804;2023-06-26T05:31:57;99172.16;;;20.90;93.19
70027;BME280;57506;50.092;15.804;2023-06-26T05:34:23;99163.59;;;21.56;94.12
70027;BME280;57506;50.092;15.804;2023-06-26T05:36:57;99179.91;;;21.36;92.52
70027;BME280;57506;50.092;15.804;2023-06-26T05:39:23;99169.00;;;21.46;98.40
70027;BME280;57506;50.092;15.804;2023-06-26T05:41:50;99168.31;;;21.71;96.96
70027;BME280;57506;50.092;15.804;2023-06-26T05:44:15;99171.44;;;21.94;92.18
70027;BME280;57506;50.092;15.804;2023-06-26T05:46:42;99169.06;;;22.13;90.12
70027;BME280;57506;50.092;15.804;2023-06-26T05:49:07;99167.22;;;22.39;83.86
70027;BME280;57506;50.092;15.804;2023-06-26T05:51:33;99157.38;;;22.63;87.86
70027;BME280;57506;50.092;15.804;2023-06-26T05:54:02;99158.94;;;22.29;87.56
70027;BME280;57506;50.092;15.804;2023-06-26T05:56:28;99166.16;;;22.65;85.72
70027;BME280;57506;50.092;15.804;2023-06-26T05:58:54;99166.19;;;23.06;84.76
70027;BME280;57506;50.092;15.804;2023-06-26T06:01:20;99165.66;;;23.09;80.88
70027;BME280;57506;50.092;15.804;2023-06-26T06:03:46;99163.72;;;22.89;79.22
70027;BME280;57506;50.092;15.804;2023-06-26T06:06:12;99160.13;;;22.74;79.81
70027;BME280;57506;50.092;15.804;2023-06-26T06:08:37;99163.44;;;23.11;79.59
70027;BME280;57506;50.092;15.804;2023-06-26T06:11:03;99164.81;;;23.09;77.08
70027;BME280;57506;50.092;15.804;2023-06-26T06:13:29;99164.28;;;23.12;75.98
70027;BME280;57506;50.092;15.804;2023-06-26T06:15:54;99171.69;;;23.31;77.21
70027;BME280;57506;50.092;15.804;2023-06-26T06:18:20;99162.84;;;23.50;77.12
70027;BME280;57506;50.092;15.804;2023-06-26T06:20:46;99163.09;;;23.58;74.02
70027;BME280;57506;50.092;15.804;2023-06-26T06:23:12;99157.91;;;23.52;76.14
70027;BME280;57506;50.092;15.804;2023-06-26T06:25:38;99145.81;;;23.53;74.25
70027;BME280;57506;50.092;15.804;2023-06-26T06:28:04;99149.91;;;23.60;74.70
70027;BME280;57506;50.092;15.804;2023-06-26T06:30:30;99149.84;;;23.70;72.97
70027;BME280;57506;50.092;15.804;2023-06-26T06:32:56;99160.91;;;23.60;75.88
70027;BME280;57506;50.092;15.804;2023-06-26T06:35:21;99151.00;;;23.59;76.43
70027;BME280;57506;50.092;15.804;2023-06-26T06:37:47;99156.44;;;23.80;74.20
70027;BME280;57506;50.092;15.804;2023-06-26T06:40:14;99144.25;;;24.01;70.27
70027;BME280;57506;50.092;15.804;2023-06-26T06:42:39;99146.19;;;23.95;69.88
70027;BME280;57506;50.092;15.804;2023-06-26T06:45:05;99144.88;;;23.83;71.95
70027;BME280;57506;50.092;15.804;2023-06-26T06:47:32;99146.84;;;23.72;70.02
70027;BME280;57506;50.092;15.804;2023-06-26T06:49:58;99146.56;;;23.73;69.50
70027;BME280;57506;50.092;15.804;2023-06-26T06:52:24;99150.66;;;23.76;69.07
70027;BME280;57506;50.092;15.804;2023-06-26T06:54:53;99145.94;;;23.92;69.84
70027;BME280;57506;50.092;15.804;2023-06-26T06:57:20;99153.28;;;24.12;68.91
70027;BME280;57506;50.092;15.804;2023-06-26T06:59:46;99143.66;;;24.09;71.48
70027;BME280;57506;50.092;15.804;2023-06-26T07:02:13;99146.13;;;24.05;68.64
70027;BME280;57506;50.092;15.804;2023-06-26T07:04:38;99146.00;;;24.36;66.49
70027;BME280;57506;50.092;15.804;2023-06-26T07:07:04;99146.06;;;24.26;67.41
70027;BME280;57506;50.092;15.804;2023-06-26T07:09:29;99133.94;;;24.22;68.45
70027;BME280;57506;50.092;15.804;2023-06-26T07:11:55;99138.06;;;24.29;67.47
70027;BME280;57506;50.092;15.804;2023-06-26T07:14:23;99132.75;;;24.43;70.71
70027;BME280;57506;50.092;15.804;2023-06-26T07:16:49;99136.59;;;24.42;69.54
70027;BME280;57506;50.092;15.804;2023-06-26T07:19:14;99138.16;;;24.53;67.99
70027;BME280;57506;50.092;15.804;2023-06-26T07:21:40;99139.09;;;25.12;65.45
70027;BME280;57506;50.092;15.804;2023-06-26T07:24:06;99133.66;;;25.01;62.74
70027;BME280;57506;50.092;15.804;2023-06-26T07:26:32;99137.63;;;24.85;61.62
70027;BME280;57506;50.092;15.804;2023-06-26T07:28:57;99135.59;;;25.01;60.27
70027;BME280;57506;50.092;15.804;2023-06-26T07:31:23;99136.78;;;24.95;62.86
70027;BME280;57506;50.092;15.804;2023-06-26T07:33:48;99128.19;;;24.62;59.62
70027;BME280;57506;50.092;15.804;2023-06-26T07:36:14;99134.41;;;24.39;58.88
70027;BME280;57506;50.092;15.804;2023-06-26T07:38:39;99120.19;;;24.27;61.24
70027;BME280;57506;50.092;15.804;2023-06-26T07:41:05;99123.72;;;24.32;66.96
70027;BME280;57506;50.092;15.804;2023-06-26T07:43:30;99118.88;;;24.53;63.55
70027;BME280;57506;50.092;15.804;2023-06-26T07:45:56;99130.53;;;24.79;67.26
70027;BME280;57506;50.092;15.804;2023-06-26T07:48:24;99131.50;;;24.64;60.25
70027;BME280;57506;50.092;15.804;2023-06-26T07:50:53;99139.09;;;24.38;61.34
70027;BME280;57506;50.092;15.804;2023-06-26T07:53:19;99132.31;;;24.65;63.52
70027;BME280;57506;50.092;15.804;2023-06-26T07:55:44;99127.63;;;24.65;64.24
70027;BME280;57506;50.092;15.804;2023-06-26T07:58:10;99122.41;;;24.98;64.29
70027;BME280;57506;50.092;15.804;2023-06-26T08:00:36;99117.03;;;25.12;56.79
70027;BME280;57506;50.092;15.804;2023-06-26T08:03:01;99128.00;;;25.17;61.12
70027;BME280;57506;50.092;15.804;2023-06-26T08:05:27;99120.75;;;25.26;59.08
70027;BME280;57506;50.092;15.804;2023-06-26T08:07:52;99117.72;;;25.27;59.74
70027;BME280;57506;50.092;15.804;2023-06-26T08:10:18;99110.31;;;25.23;58.10
70027;BME280;57506;50.092;15.804;2023-06-26T08:12:44;99122.53;;;25.40;55.77
70027;BME280;57506;50.092;15.804;2023-06-26T08:15:11;99116.78;;;25.61;57.83
70027;BME280;57506;50.092;15.804;2023-06-26T08:17:37;99111.47;;;25.17;57.65
70027;BME280;57506;50.092;15.804;2023-06-26T08:20:04;99121.34;;;24.89;56.50
70027;BME280;57506;50.092;15.804;2023-06-26T08:22:30;99114.72;;;24.90;57.52
70027;BME280;57506;50.092;15.804;2023-06-26T08:24:56;99111.94;;;25.00;61.92
70027;BME280;57506;50.092;15.804;2023-06-26T08:27:22;99109.59;;;25.12;60.42
70027;BME280;57506;50.092;15.804;2023-06-26T08:29:48;99100.34;;;25.51;59.96
70027;BME280;57506;50.092;15.804;2023-06-26T08:32:14;99101.34;;;25.60;59.33
70027;BME280;57506;50.092;15.804;2023-06-26T08:34:39;99097.72;;;26.07;54.74
70027;BME280;57506;50.092;15.804;2023-06-26T08:37:05;99092.03;;;25.98;53.98
70027;BME280;57506;50.092;15.804;2023-06-26T08:39:31;99087.94;;;26.14;51.72
70027;BME280;57506;50.092;15.804;2023-06-26T08:41:57;99096.09;;;26.25;52.29
70027;BME280;57506;50.092;15.804;2023-06-26T08:44:22;99096.16;;;26.20;57.13
70027;BME280;57506;50.092;15.804;2023-06-26T08:46:50;99087.94;;;26.14;59.07
70027;BME280;57506;50.092;15.804;2023-06-26T08:52:23;99084.66;;;25.94;56.47
70027;BME280;57506;50.092;15.804;2023-06-26T08:54:54;99089.13;;;26.08;58.26
70027;BME280;57506;50.092;15.804;2023-06-26T08:57:22;99088.91;;;26.24;53.24
70027;BME280;57506;50.092;15.804;2023-06-26T08:59:49;99076.97;;;26.09;51.83
70027;BME280;57506;50.092;15.804;2023-06-26T09:02:15;99080.31;;;26.06;55.24
70027;BME280;57506;50.092;15.804;2023-06-26T09:04:40;99085.25;;;26.47;53.74
70027;BME280;57506;50.092;15.804;2023-06-26T09:07:07;99076.56;;;26.72;49.82
70027;BME280;57506;50.092;15.804;2023-06-26T09:09:33;99067.72;;;26.57;49.14
70027;BME280;57506;50.092;15.804;2023-06-26T09:11:59;99075.13;;;26.75;57.20
70027;BME280;57506;50.092;15.804;2023-06-26T09:14:26;99071.06;;;26.86;54.10
70027;BME280;57506;50.092;15.804;2023-06-26T09:16:52;99069.06;;;26.59;50.17
70027;BME280;57506;50.092;15.804;2023-06-26T09:19:18;99070.03;;;26.49;50.80
70027;BME280;57506;50.092;15.804;2023-06-26T09:21:43;99057.03;;;26.50;51.35
70027;BME280;57506;50.092;15.804;2023-06-26T09:24:09;99053.84;;;26.43;51.13
70027;BME280;57506;50.092;15.804;2023-06-26T09:26:39;99054.66;;;26.43;52.53
70027;BME280;57506;50.092;15.804;2023-06-26T09:29:06;99048.66;;;26.55;56.17
70027;BME280;57506;50.092;15.804;2023-06-26T09:31:38;99051.47;;;26.69;57.41
70027;BME280;57506;50.092;15.804;2023-06-26T09:34:04;99053.84;;;26.75;58.79
70027;BME280;57506;50.092;15.804;2023-06-26T09:36:31;99050.31;;;26.56;52.80
70027;BME280;57506;50.092;15.804;2023-06-26T09:39:06;99052.00;;;26.84;50.24
70027;BME280;57506;50.092;15.804;2023-06-26T09:41:43;99057.13;;;26.77;55.15
70027;BME280;57506;50.092;15.804;2023-06-26T09:44:14;99049.66;;;26.78;54.07
70027;BME280;57506;50.092;15.804;2023-06-26T09:46:40;99056.00;;;26.78;50.24
70027;BME280;57506;50.092;15.804;2023-06-26T09:49:06;99058.06;;;26.87;51.34
70027;BME280;57506;50.092;15.804;2023-06-26T09:51:33;99053.13;;;26.83;54.73
70027;BME280;57506;50.092;15.804;2023-06-26T09:53:59;99053.72;;;26.99;55.20
70027;BME280;57506;50.092;15.804;2023-06-26T09:56:26;99059.66;;;26.74;52.45
70027;BME280;57506;50.092;15.804;2023-06-26T09:58:57;99055.19;;;26.45;51.24
70027;BME280;57506;50.092;15.804;2023-06-26T10:01:26;99046.81;;;26.64;49.00
70027;BME280;57506;50.092;15.804;2023-06-26T10:03:52;99051.16;;;26.70;51.45
70027;BME280;57506;50.092;15.804;2023-06-26T10:06:22;99050.97;;;26.80;55.23
70027;BME280;57506;50.092;15.804;2023-06-26T10:08:50;99051.16;;;26.70;52.78
70027;BME280;57506;50.092;15.804;2023-06-26T10:11:19;99049.59;;;26.64;50.80
70027;BME280;57506;50.092;15.804;2023-06-26T10:13:49;99035.69;;;26.69;53.54
70027;BME280;57506;50.092;15.804;2023-06-26T10:16:26;99037.25;;;26.75;51.67
70027;BME280;57506;50.092;15.804;2023-06-26T10:18:53;99031.13;;;26.78;52.94
70027;BME280;57506;50.092;15.804;2023-06-26T10:21:22;99022.09;;;26.73;49.46
70027;BME280;57506;50.092;15.804;2023-06-26T10:23:49;99025.66;;;27.06;54.78
70027;BME280;57506;50.092;15.804;2023-06-26T10:26:19;99019.09;;;27.02;49.33
70027;BME280;57506;50.092;15.804;2023-06-26T10:28:47;99016.84;;;27.17;56.02
70027;BME280;57506;50.092;15.804;2023-06-26T10:31:15;99017.28;;;27.11;49.45
70027;BME280;57506;50.092;15.804;2023-06-26T10:33:42;99008.41;;;26.95;49.13
70027;BME280;57506;50.092;15.804;2023-06-26T10:36:18;98995.41;;;26.96;50.59
70027;BME280;57506;50.092;15.804;2023-06-26T10:39:11;99014.59;;;27.20;51.45
70027;BME280;57506;50.092;15.804;2023-06-26T10:41:40;99005.25;;;27.02;49.57
70027;BME280;57506;50.092;15.804;2023-06-26T10:44:11;98998.34;;;26.86;48.64
70027;BME280;57506;50.092;15.804;2023-06-26T10:46:54;98985.25;;;26.91;50.58
70027;BME280;57506;50.092;15.804;2023-06-26T10:49:25;98990.69;;;26.96;50.08
70027;BME280;57506;50.092;15.804;2023-06-26T10:51:52;98982.81;;;27.03;54.45
70027;BME280;57506;50.092;15.804;2023-06-26T10:54:21;98973.31;;;27.23;49.52
70027;BME280;57506;50.092;15.804;2023-06-26T10:56:50;98981.50;;;27.01;48.55
70027;BME280;57506;50.092;15.804;2023-06-26T10:59:23;98975.63;;;26.89;50.00
70027;BME280;57506;50.092;15.804;2023-06-26T11:02:09;98965.31;;;27.22;49.95
70027;BME280;57506;50.092;15.804;2023-06-26T11:04:46;98970.59;;;27.45;49.97
70027;BME280;57506;50.092;15.804;2023-06-26T11:07:24;98968.22;;;27.66;47.38
70027;BME280;57506;50.092;15.804;2023-06-26T11:10:08;98969.28;;;27.57;47.57
70027;BME280;57506;50.092;15.804;2023-06-26T11:12:44;98963.13;;;27.32;49.48
70027;BME280;57506;50.092;15.804;2023-06-26T11:15:15;98967.41;;;27.66;48.46
70027;BME280;57506;50.092;15.804;2023-06-26T11:17:43;98967.56;;;27.83;49.19
70027;BME280;57506;50.092;15.804;2023-06-26T11:20:14;98964.50;;;28.20;47.46
70027;BME280;57506;50.092;15.804;2023-06-26T11:22:42;98962.31;;;28.17;46.94
70027;BME280;57506;50.092;15.804;2023-06-26T11:25:09;98961.28;;;28.58;51.52
70027;BME280;57506;50.092;15.804;2023-06-26T11:30:05;98963.19;;;28.49;45.59
70027;BME280;57506;50.092;15.804;2023-06-26T11:32:31;98954.84;;;28.40;46.67
70027;BME280;57506;50.092;15.804;2023-06-26T11:35:00;98948.72;;;28.52;46.65
70027;BME280;57506;50.092;15.804;2023-06-26T11:37:26;98953.63;;;28.55;45.38
70027;BME280;57506;50.092;15.804;2023-06-26T11:39:52;98950.38;;;28.62;45.38
70027;BME280;57506;50.092;15.804;2023-06-26T11:42:19;98950.88;;;28.33;48.18
70027;BME280;57506;50.092;15.804;2023-06-26T11:44:46;98944.72;;;28.75;49.91
70027;BME280;57506;50.092;15.804;2023-06-26T11:47:18;98931.91;;;28.79;47.74
70027;BME280;57506;50.092;15.804;2023-06-26T11:49:49;98950.56;;;28.34;45.65
70027;BME280;57506;50.092;15.804;2023-06-26T11:52:15;98948.53;;;28.26;46.60
70027;BME280;57506;50.092;15.804;2023-06-26T11:54:42;98940.47;;;28.38;48.16
70027;BME280;57506;50.092;15.804;2023-06-26T11:57:08;98931.63;;;28.89;43.74
70027;BME280;57506;50.092;15.804;2023-06-26T11:59:34;98938.03;;;29.07;46.08
70027;BME280;57506;50.092;15.804;2023-06-26T12:02:04;98930.47;;;29.39;43.88
70027;BME280;57506;50.092;15.804;2023-06-26T12:04:31;98937.81;;;29.35;43.47
70027;BME280;57506;50.092;15.804;2023-06-26T12:06:57;98928.13;;;29.23;44.63
70027;BME280;57506;50.092;15.804;2023-06-26T12:09:23;98930.34;;;29.52;44.21
70027;BME280;57506;50.092;15.804;2023-06-26T12:11:53;98923.31;;;29.55;41.87
70027;BME280;57506;50.092;15.804;2023-06-26T12:14:23;98921.53;;;29.59;49.80
70027;BME280;57506;50.092;15.804;2023-06-26T12:16:51;98916.78;;;29.51;45.37
70027;BME280;57506;50.092;15.804;2023-06-26T12:19:17;98909.88;;;29.31;42.66
70027;BME280;57506;50.092;15.804;2023-06-26T12:21:49;98919.00;;;29.32;43.07
70027;BME280;57506;50.092;15.804;2023-06-26T12:24:20;98916.06;;;29.28;43.96
70027;BME280;57506;50.092;15.804;2023-06-26T12:26:52;98903.81;;;29.20;43.63
70027;BME280;57506;50.092;15.804;2023-06-26T12:29:20;98910.47;;;29.11;41.31
70027;BME280;57506;50.092;15.804;2023-06-26T12:31:51;98902.00;;;29.16;43.79
70027;BME280;57506;50.092;15.804;2023-06-26T12:34:19;98905.34;;;29.52;42.94
70027;BME280;57506;50.092;15.804;2023-06-26T12:36:48;98904.34;;;29.91;46.33
70027;BME280;57506;50.092;15.804;2023-06-26T12:39:20;98899.63;;;30.18;42.98
70027;BME280;57506;50.092;15.804;2023-06-26T12:41:46;98898.19;;;30.03;40.84
70027;BME280;57506;50.092;15.804;2023-06-26T12:44:24;98901.28;;;30.02;41.40
70027;BME280;57506;50.092;15.804;2023-06-26T12:46:55;98899.31;;;30.11;44.98
70027;BME280;57506;50.092;15.804;2023-06-26T12:49:29;98890.63;;;30.12;39.72
70027;BME280;57506;50.092;15.804;2023-06-26T12:51:55;98890.59;;;30.30;41.79
70027;BME280;57506;50.092;15.804;2023-06-26T12:54:21;98898.66;;;30.05;42.04
70027;BME280;57506;50.092;15.804;2023-06-26T12:56:46;98888.38;;;29.63;42.27